sensor_id;sensor_type;location;lat;lon;timestamp;pressure;altitude;pressure_sealevel;temperature;humidity
68793;BME280;55778;54.346;10.210;2023-05-10T00:00:55;100486.22;;;13.12;52.27
68793;BME280;55778;54.346;10.210;2023-05-10T00:03:20;100475.28;;;13.12;52.42
68793;BME280;55778;54.346;10.210;2023-05-10T00:05:45;100472.38;;;13.13;52.24
68793;BME280;55778;54.346;10.210;2023-05-10T00:08:11;100469.31;;;13.08;52.85
68793;BME280;55778;54.346;10.210;2023-05-10T00:10:36;100466.56;;;13.08;52.71
68793;BME280;55778;54.346;10.210;2023-05-10T00:13:02;100463.31;;;13.05;52.88
68793;BME280;55778;54.346;10.210;2023-05-10T00:15:28;100461.59;;;13.04;52.69
68793;BME280;55778;54.346;10.210;2023-05-10T00:17:55;100462.78;;;13.01;53.28
68793;BME280;55778;54.346;10.210;2023-05-10T00:20:21;100458.47;;;12.99;53.09
68793;BME280;55778;54.346;10.210;2023-05-10T00:22:46;100448.44;;;12.99;53.08
68793;BME280;55778;54.346;10.210;2023-05-10T00:25:11;100455.38;;;12.94;53.66
68793;BME280;55778;54.346;10.210;2023-05-10T00:27:37;100448.38;;;12.91;53.48
68793;BME280;55778;54.346;10.210;2023-05-10T00:30:02;100447.50;;;12.91;53.53
68793;BME280;55778;54.346;10.210;2023-05-10T00:32:28;100438.81;;;12.87;53.70
68793;BME280;55778;54.346;10.210;2023-05-10T00:34:53;100443.75;;;12.84;53.86
68793;BME280;55778;54.346;10.210;2023-05-10T00:37:18;100443.41;;;12.79;54.18
68793;BME280;55778;54.346;10.210;2023-05-10T00:39:44;100439.09;;;12.76;54.51
68793;BME280;55778;54.346;10.210;2023-05-10T00:42:09;100438.59;;;12.73;54.88
68793;BME280;55778;54.346;10.210;2023-05-10T00:44:35;100437.75;;;12.72;54.36
68793;BME280;55778;54.346;10.210;2023-05-10T00:47:00;100435.88;;;12.73;54.52
68793;BME280;55778;54.346;10.210;2023-05-10T00:49:26;100429.72;;;12.71;54.79
68793;BME280;55778;54.346;10.210;2023-05-10T00:51:51;100427.47;;;12.66;54.94
68793;BME280;55778;54.346;10.210;2023-05-10T00:54:17;100423.88;;;12.66;54.89
68793;BME280;55778;54.346;10.210;2023-05-10T00:56:43;100420.81;;;12.61;55.43
68793;BME280;55778;54.346;10.210;2023-05-10T00:59:14;100415.50;;;12.59;55.73
68793;BME280;55778;54.346;10.210;2023-05-10T01:01:40;100414.09;;;12.55;55.92
68793;BME280;55778;54.346;10.210;2023-05-10T01:04:05;100419.72;;;12.54;55.85
68793;BME280;55778;54.346;10.210;2023-05-10T01:06:31;100413.44;;;12.53;55.90
68793;BME280;55778;54.346;10.210;2023-05-10T01:08:57;100410.53;;;12.55;55.80
68793;BME280;55778;54.346;10.210;2023-05-10T01:11:22;100409.13;;;12.51;55.94
68793;BME280;55778;54.346;10.210;2023-05-10T01:13:56;100406.56;;;12.49;56.26
68793;BME280;55778;54.346;10.210;2023-05-10T01:16:23;100407.59;;;12.48;56.16
68793;BME280;55778;54.346;10.210;2023-05-10T01:18:51;100406.06;;;12.46;56.53
68793;BME280;55778;54.346;10.210;2023-05-10T01:21:35;100406.56;;;12.41;56.88
68793;BME280;55778;54.346;10.210;2023-05-10T01:27:23;100404.16;;;12.38;57.07
68793;BME280;55778;54.346;10.210;2023-05-10T01:30:13;100401.59;;;12.37;57.46
68793;BME280;55778;54.346;10.210;2023-05-10T01:35:40;100401.22;;;12.32;57.64
68793;BME280;55778;54.346;10.210;2023-05-10T01:43:30;100401.56;;;12.29;57.59
68793;BME280;55778;54.346;10.210;2023-05-10T01:46:10;100396.59;;;12.24;58.14
68793;BME280;55778;54.346;10.210;2023-05-10T01:48:41;100409.91;;;12.19;58.63
68793;BME280;55778;54.346;10.210;2023-05-10T01:51:13;100401.53;;;12.21;58.42
68793;BME280;55778;54.346;10.210;2023-05-10T01:53:42;100399.47;;;12.15;58.86
68793;BME280;55778;54.346;10.210;2023-05-10T01:56:09;100395.16;;;12.12;58.96
68793;BME280;55778;54.346;10.210;2023-05-10T01:58:36;100392.28;;;12.13;58.82
68793;BME280;55778;54.346;10.210;2023-05-10T02:01:05;100397.72;;;12.13;58.90
68793;BME280;55778;54.346;10.210;2023-05-10T02:03:34;100397.56;;;12.07;59.38
68793;BME280;55778;54.346;10.210;2023-05-10T02:06:01;100396.03;;;12.04;59.79
68793;BME280;55778;54.346;10.210;2023-05-10T02:08:27;100396.84;;;12.05;59.34
68793;BME280;55778;54.346;10.210;2023-05-10T02:10:55;100404.06;;;12.06;59.28
68793;BME280;55778;54.346;10.210;2023-05-10T02:13:23;100394.63;;;12.00;59.85
68793;BME280;55778;54.346;10.210;2023-05-10T02:15:50;100386.75;;;11.97;60.23
68793;BME280;55778;54.346;10.210;2023-05-10T02:18:16;100392.53;;;11.94;60.46
68793;BME280;55778;54.346;10.210;2023-05-10T02:20:47;100392.53;;;11.94;60.59
68793;BME280;55778;54.346;10.210;2023-05-10T02:23:13;100394.22;;;11.87;60.82
68793;BME280;55778;54.346;10.210;2023-05-10T02:25:41;100406.69;;;11.90;60.79
68793;BME280;55778;54.346;10.210;2023-05-10T02:28:08;100389.94;;;11.85;61.11
68793;BME280;55778;54.346;10.210;2023-05-10T02:30:35;100392.63;;;11.77;61.45
68793;BME280;55778;54.346;10.210;2023-05-10T02:33:02;100386.28;;;11.76;61.23
68793;BME280;55778;54.346;10.210;2023-05-10T02:35:29;100393.00;;;11.82;61.34
68793;BME280;55778;54.346;10.210;2023-05-10T02:37:57;100393.00;;;11.82;61.03
68793;BME280;55778;54.346;10.210;2023-05-10T02:40:23;100391.28;;;11.81;61.50
68793;BME280;55778;54.346;10.210;2023-05-10T02:42:52;100399.78;;;11.78;61.36
68793;BME280;55778;54.346;10.210;2023-05-10T02:45:20;100390.91;;;11.76;61.66
68793;BME280;55778;54.346;10.210;2023-05-10T02:47:47;100387.13;;;11.69;61.89
68793;BME280;55778;54.346;10.210;2023-05-10T02:50:13;100388.84;;;11.70;62.13
68793;BME280;55778;54.346;10.210;2023-05-10T02:52:51;100391.34;;;11.63;62.28
68793;BME280;55778;54.346;10.210;2023-05-10T02:55:22;100387.78;;;11.63;62.33
68793;BME280;55778;54.346;10.210;2023-05-10T02:57:57;100388.56;;;11.55;62.92
68793;BME280;55778;54.346;10.210;2023-05-10T03:00:24;100380.88;;;11.59;62.55
68793;BME280;55778;54.346;10.210;2023-05-10T03:02:50;100382.78;;;11.58;62.76
68793;BME280;55778;54.346;10.210;2023-05-10T03:05:15;100382.72;;;11.50;63.18
68793;BME280;55778;54.346;10.210;2023-05-10T03:07:41;100382.16;;;11.47;63.62
68793;BME280;55778;54.346;10.210;2023-05-10T03:10:07;100384.91;;;11.47;63.68
68793;BME280;55778;54.346;10.210;2023-05-10T03:12:47;100380.63;;;11.44;63.94
68793;BME280;55778;54.346;10.210;2023-05-10T03:20:29;100385.69;;;11.39;64.23
68793;BME280;55778;54.346;10.210;2023-05-10T03:23:05;100388.41;;;11.39;64.49
68793;BME280;55778;54.346;10.210;2023-05-10T03:25:33;100377.50;;;11.39;64.49
68793;BME280;55778;54.346;10.210;2023-05-10T03:28:00;100384.16;;;11.37;64.26
68793;BME280;55778;54.346;10.210;2023-05-10T03:30:26;100384.31;;;11.35;64.62
68793;BME280;55778;54.346;10.210;2023-05-10T03:32:53;100382.78;;;11.33;65.02
68793;BME280;55778;54.346;10.210;2023-05-10T03:35:18;100385.66;;;11.31;65.12
68793;BME280;55778;54.346;10.210;2023-05-10T03:37:43;100392.81;;;11.32;65.17
68793;BME280;55778;54.346;10.210;2023-05-10T03:40:09;100388.22;;;11.33;65.30
68793;BME280;55778;54.346;10.210;2023-05-10T03:42:35;100382.22;;;11.29;65.63
68793;BME280;55778;54.346;10.210;2023-05-10T03:45:00;100385.09;;;11.28;65.63
68793;BME280;55778;54.346;10.210;2023-05-10T03:47:26;100384.13;;;11.29;65.89
68793;BME280;55778;54.346;10.210;2023-05-10T03:49:51;100384.78;;;11.31;65.14
68793;BME280;55778;54.346;10.210;2023-05-10T03:52:17;100393.13;;;11.29;65.71
68793;BME280;55778;54.346;10.210;2023-05-10T03:54:43;100382.22;;;11.29;65.40
68793;BME280;55778;54.346;10.210;2023-05-10T03:57:08;100384.78;;;11.31;65.49
68793;BME280;55778;54.346;10.210;2023-05-10T03:59:34;100385.97;;;11.28;65.93
68793;BME280;55778;54.346;10.210;2023-05-10T04:02:00;100379.81;;;11.26;65.97
68793;BME280;55778;54.346;10.210;2023-05-10T04:04:25;100385.81;;;11.30;66.04
68793;BME280;55778;54.346;10.210;2023-05-10T04:06:50;100375.94;;;11.29;66.17
68793;BME280;55778;54.346;10.210;2023-05-10T04:09:16;100383.47;;;11.35;65.80
68793;BME280;55778;54.346;10.210;2023-05-10T04:11:42;100380.59;;;11.36;66.11
68793;BME280;55778;54.346;10.210;2023-05-10T04:14:07;100373.06;;;11.38;65.68
68793;BME280;55778;54.346;10.210;2023-05-10T04:16:33;100375.66;;;11.40;65.95
68793;BME280;55778;54.346;10.210;2023-05-10T04:18:58;100376.69;;;11.39;66.04
68793;BME280;55778;54.346;10.210;2023-05-10T04:21:25;100378.38;;;11.40;65.89
68793;BME280;55778;54.346;10.210;2023-05-10T04:23:50;100372.75;;;11.41;66.31
68793;BME280;55778;54.346;10.210;2023-05-10T04:26:15;100370.94;;;11.50;65.85
68793;BME280;55778;54.346;10.210;2023-05-10T04:28:41;100383.25;;;11.54;65.31
68793;BME280;55778;54.346;10.210;2023-05-10T04:31:08;100373.34;;;11.53;65.69
68793;BME280;55778;54.346;10.210;2023-05-10T04:33:34;100358.69;;;11.54;65.77
68793;BME280;55778;54.346;10.210;2023-05-10T04:36:00;100374.44;;;11.60;65.86
68793;BME280;55778;54.346;10.210;2023-05-10T04:38:27;100380.59;;;11.62;65.64
68793;BME280;55778;54.346;10.210;2023-05-10T04:40:53;100372.25;;;11.63;65.58
68793;BME280;55778;54.346;10.210;2023-05-10T04:43:19;100372.78;;;11.67;65.17
68793;BME280;55778;54.346;10.210;2023-05-10T04:45:44;100372.47;;;11.70;65.71
68793;BME280;55778;54.346;10.210;2023-05-10T04:48:09;100371.44;;;11.71;65.93
68793;BME280;55778;54.346;10.210;2023-05-10T04:50:35;100365.66;;;11.74;65.34
68793;BME280;55778;54.346;10.210;2023-05-10T04:53:00;100366.88;;;11.79;65.62
68793;BME280;55778;54.346;10.210;2023-05-10T04:55:27;100369.81;;;11.86;65.33
68793;BME280;55778;54.346;10.210;2023-05-10T04:57:53;100375.09;;;11.87;64.68
68793;BME280;55778;54.346;10.210;2023-05-10T05:00:20;100369.69;;;11.95;65.00
68793;BME280;55778;54.346;10.210;2023-05-10T05:02:45;100377.03;;;11.95;64.81
68793;BME280;55778;54.346;10.210;2023-05-10T05:05:12;100381.63;;;11.94;64.31
68793;BME280;55778;54.346;10.210;2023-05-10T05:07:37;100374.94;;;11.89;64.75
68793;BME280;55778;54.346;10.210;2023-05-10T05:10:05;100381.94;;;11.91;64.61
68793;BME280;55778;54.346;10.210;2023-05-10T05:12:30;100375.47;;;11.92;65.04
68793;BME280;55778;54.346;10.210;2023-05-10T05:14:56;100376.16;;;11.94;64.83
68793;BME280;55778;54.346;10.210;2023-05-10T05:17:21;100380.94;;;11.92;65.37
68793;BME280;55778;54.346;10.210;2023-05-10T05:19:47;100373.59;;;11.93;64.78
68793;BME280;55778;54.346;10.210;2023-05-10T05:22:12;100372.75;;;11.92;65.57
68793;BME280;55778;54.346;10.210;2023-05-10T05:24:37;100381.78;;;11.93;65.85
68793;BME280;55778;54.346;10.210;2023-05-10T05:27:05;100383.34;;;11.95;65.38
68793;BME280;55778;54.346;10.210;2023-05-10T05:29:31;100369.19;;;12.00;64.99
68793;BME280;55778;54.346;10.210;2023-05-10T05:31:56;100372.59;;;12.02;65.24
68793;BME280;55778;54.346;10.210;2023-05-10T05:34:22;100378.44;;;12.07;65.39
68793;BME280;55778;54.346;10.210;2023-05-10T05:36:48;100368.38;;;12.07;65.26
68793;BME280;55778;54.346;10.210;2023-05-10T05:39:13;100375.88;;;12.13;65.12
68793;BME280;55778;54.346;10.210;2023-05-10T05:41:38;100378.28;;;12.17;65.19
68793;BME280;55778;54.346;10.210;2023-05-10T05:44:04;100379.16;;;12.17;65.18
68793;BME280;55778;54.346;10.210;2023-05-10T05:46:29;100381.06;;;12.25;64.94
68793;BME280;55778;54.346;10.210;2023-05-10T05:48:55;100376.13;;;12.28;64.34
68793;BME280;55778;54.346;10.210;2023-05-10T05:51:20;100382.31;;;12.38;64.84
68793;BME280;55778;54.346;10.210;2023-05-10T05:53:46;100370.19;;;12.49;63.75
68793;BME280;55778;54.346;10.210;2023-05-10T05:56:11;100374.34;;;12.61;64.19
68793;BME280;55778;54.346;10.210;2023-05-10T05:58:36;100391.06;;;12.66;63.80
68793;BME280;55778;54.346;10.210;2023-05-10T06:01:02;100380.00;;;12.75;63.38
68793;BME280;55778;54.346;10.210;2023-05-10T06:03:27;100369.56;;;12.79;62.68
68793;BME280;55778;54.346;10.210;2023-05-10T06:05:52;100377.59;;;12.88;62.77
68793;BME280;55778;54.346;10.210;2023-05-10T06:08:18;100374.56;;;12.99;63.15
68793;BME280;55778;54.346;10.210;2023-05-10T06:10:43;100374.72;;;13.06;62.15
68793;BME280;55778;54.346;10.210;2023-05-10T06:13:09;100373.22;;;13.11;62.71
68793;BME280;55778;54.346;10.210;2023-05-10T06:15:35;100367.22;;;13.16;62.44
68793;BME280;55778;54.346;10.210;2023-05-10T06:18:00;100381.56;;;13.26;62.44
68793;BME280;55778;54.346;10.210;2023-05-10T06:20:25;100384.81;;;13.45;63.00
68793;BME280;55778;54.346;10.210;2023-05-10T06:22:51;100383.44;;;13.49;61.08
68793;BME280;55778;54.346;10.210;2023-05-10T06:25:16;100383.09;;;13.36;61.22
68793;BME280;55778;54.346;10.210;2023-05-10T06:27:43;100378.81;;;13.34;60.99
68793;BME280;55778;54.346;10.210;2023-05-10T06:30:09;100379.69;;;13.34;61.31
68793;BME280;55778;54.346;10.210;2023-05-10T06:32:35;100372.31;;;13.43;60.54
68793;BME280;55778;54.346;10.210;2023-05-10T06:35:00;100381.69;;;13.56;60.58
68793;BME280;55778;54.346;10.210;2023-05-10T06:37:26;100375.38;;;13.56;59.98
68793;BME280;55778;54.346;10.210;2023-05-10T06:39:51;100366.31;;;13.47;59.90
68793;BME280;55778;54.346;10.210;2023-05-10T06:42:16;100375.91;;;13.51;60.25
68793;BME280;55778;54.346;10.210;2023-05-10T06:44:42;100379.97;;;13.63;60.25
68793;BME280;55778;54.346;10.210;2023-05-10T06:47:08;100381.31;;;13.75;60.10
68793;BME280;55778;54.346;10.210;2023-05-10T06:49:34;100370.50;;;13.90;60.08
68793;BME280;55778;54.346;10.210;2023-05-10T06:51:59;100380.19;;;14.00;58.92
68793;BME280;55778;54.346;10.210;2023-05-10T06:54:24;100381.03;;;14.09;59.27
68793;BME280;55778;54.346;10.210;2023-05-10T06:56:50;100377.06;;;14.12;59.60
68793;BME280;55778;54.346;10.210;2023-05-10T06:59:15;100373.94;;;14.31;60.00
68793;BME280;55778;54.346;10.210;2023-05-10T07:01:42;100380.13;;;14.25;58.86
68793;BME280;55778;54.346;10.210;2023-05-10T07:04:07;100380.56;;;14.36;59.60
68793;BME280;55778;54.346;10.210;2023-05-10T07:06:33;100382.34;;;14.29;58.59
68793;BME280;55778;54.346;10.210;2023-05-10T07:08:59;100381.75;;;14.42;58.70
68793;BME280;55778;54.346;10.210;2023-05-10T07:11:26;100386.88;;;14.45;58.82
68793;BME280;55778;54.346;10.210;2023-05-10T07:13:51;100391.47;;;14.52;58.86
68793;BME280;55778;54.346;10.210;2023-05-10T07:16:17;100381.34;;;14.53;58.66
68793;BME280;55778;54.346;10.210;2023-05-10T07:18:42;100387.25;;;14.42;58.17
68793;BME280;55778;54.346;10.210;2023-05-10T07:21:08;100393.38;;;14.44;58.52
68793;BME280;55778;54.346;10.210;2023-05-10T07:23:33;100390.63;;;14.52;58.21
68793;BME280;55778;54.346;10.210;2023-05-10T07:25:59;100392.59;;;14.35;58.73
68793;BME280;55778;54.346;10.210;2023-05-10T07:28:24;100390.09;;;14.48;58.81
68793;BME280;55778;54.346;10.210;2023-05-10T07:30:49;100389.78;;;14.74;58.47
68793;BME280;55778;54.346;10.210;2023-05-10T07:33:15;100395.03;;;15.06;58.36
68793;BME280;55778;54.346;10.210;2023-05-10T07:35:41;100390.53;;;15.35;56.96
68793;BME280;55778;54.346;10.210;2023-05-10T07:38:07;100394.78;;;15.15;55.99
68793;BME280;55778;54.346;10.210;2023-05-10T07:40:32;100386.63;;;14.85;56.94
68793;BME280;55778;54.346;10.210;2023-05-10T07:42:58;100386.69;;;14.99;57.63
68793;BME280;55778;54.346;10.210;2023-05-10T07:45:24;100390.34;;;15.14;57.23
68793;BME280;55778;54.346;10.210;2023-05-10T07:47:50;100388.81;;;15.12;56.81
68793;BME280;55778;54.346;10.210;2023-05-10T07:50:15;100385.16;;;15.19;56.48
68793;BME280;55778;54.346;10.210;2023-05-10T07:52:41;100393.94;;;15.37;56.42
68793;BME280;55778;54.346;10.210;2023-05-10T07:55:07;100385.28;;;15.26;56.35
68793;BME280;55778;54.346;10.210;2023-05-10T07:57:36;100385.78;;;15.29;56.46
68793;BME280;55778;54.346;10.210;2023-05-10T08:00:02;100396.16;;;15.56;57.60
68793;BME280;55778;54.346;10.210;2023-05-10T08:02:27;100390.09;;;15.46;56.68
68793;BME280;55778;54.346;10.210;2023-05-10T08:04:53;100386.72;;;15.59;56.17
68793;BME280;55778;54.346;10.210;2023-05-10T08:07:18;100392.22;;;15.73;55.71
68793;BME280;55778;54.346;10.210;2023-05-10T08:09:44;100397.34;;;15.91;55.41
68793;BME280;55778;54.346;10.210;2023-05-10T08:12:09;100403.03;;;15.89;55.27
68793;BME280;55778;54.346;10.210;2023-05-10T08:14:35;100394.69;;;16.12;55.85
68793;BME280;55778;54.346;10.210;2023-05-10T08:17:02;100399.13;;;16.28;55.87
68793;BME280;55778;54.346;10.210;2023-05-10T08:19:28;100395.19;;;16.45;54.87
68793;BME280;55778;54.346;10.210;2023-05-10T08:21:53;100407.69;;;16.47;54.68
68793;BME280;55778;54.346;10.210;2023-05-10T08:24:21;100406.34;;;16.58;53.84
68793;BME280;55778;54.346;10.210;2023-05-10T08:26:47;100400.59;;;16.74;53.67
68793;BME280;55778;54.346;10.210;2023-05-10T08:29:13;100414.72;;;16.85;52.44
68793;BME280;55778;54.346;10.210;2023-05-10T08:31:39;100411.06;;;16.64;53.44
68793;BME280;55778;54.346;10.210;2023-05-10T08:34:04;100413.78;;;16.78;51.85
68793;BME280;55778;54.346;10.210;2023-05-10T08:36:30;100411.53;;;17.03;52.56
68793;BME280;55778;54.346;10.210;2023-05-10T08:38:57;100417.38;;;17.35;52.54
68793;BME280;55778;54.346;10.210;2023-05-10T08:41:24;100422.00;;;17.35;51.55
68793;BME280;55778;54.346;10.210;2023-05-10T08:43:51;100410.91;;;17.43;50.11
68793;BME280;55778;54.346;10.210;2023-05-10T08:46:18;100418.97;;;17.44;49.78
68793;BME280;55778;54.346;10.210;2023-05-10T08:48:45;100410.78;;;17.78;49.95
68793;BME280;55778;54.346;10.210;2023-05-10T08:51:17;100420.63;;;18.28;49.01
68793;BME280;55778;54.346;10.210;2023-05-10T08:53:44;100412.41;;;18.35;48.72
68793;BME280;55778;54.346;10.210;2023-05-10T08:56:10;100417.59;;;18.51;47.04
68793;BME280;55778;54.346;10.210;2023-05-10T08:58:37;100414.50;;;18.67;47.19
68793;BME280;55778;54.346;10.210;2023-05-10T09:01:03;100411.75;;;18.73;48.17
68793;BME280;55778;54.346;10.210;2023-05-10T09:03:30;100409.31;;;19.04;46.59
68793;BME280;55778;54.346;10.210;2023-05-10T09:05:56;100415.34;;;19.34;47.20
68793;BME280;55778;54.346;10.210;2023-05-10T09:08:23;100422.78;;;19.27;46.39
68793;BME280;55778;54.346;10.210;2023-05-10T09:10:51;100413.69;;;18.79;46.22
68793;BME280;55778;54.346;10.210;2023-05-10T09:13:16;100418.97;;;19.41;47.05
68793;BME280;55778;54.346;10.210;2023-05-10T09:15:44;100419.59;;;19.82;45.73
68793;BME280;55778;54.346;10.210;2023-05-10T09:18:10;100417.06;;;20.13;44.39
68793;BME280;55778;54.346;10.210;2023-05-10T09:20:35;100419.38;;;20.10;44.90
68793;BME280;55778;54.346;10.210;2023-05-10T09:23:01;100424.53;;;19.67;44.79
68793;BME280;55778;54.346;10.210;2023-05-10T09:25:26;100420.25;;;19.71;45.82
68793;BME280;55778;54.346;10.210;2023-05-10T09:27:52;100425.81;;;19.77;45.38
68793;BME280;55778;54.346;10.210;2023-05-10T09:30:28;100425.78;;;19.71;45.63
68793;BME280;55778;54.346;10.210;2023-05-10T09:32:55;100422.59;;;19.87;45.75
68793;BME280;55778;54.346;10.210;2023-05-10T09:35:22;100425.97;;;20.15;44.44
68793;BME280;55778;54.346;10.210;2023-05-10T09:37:53;100428.13;;;20.13;44.39
68793;BME280;55778;54.346;10.210;2023-05-10T09:40:20;100428.97;;;19.88;44.17
68793;BME280;55778;54.346;10.210;2023-05-10T09:42:55;100420.25;;;19.84;44.60
68793;BME280;55778;54.346;10.210;2023-05-10T09:45:23;100427.47;;;19.98;45.64
68793;BME280;55778;54.346;10.210;2023-05-10T09:47:48;100434.72;;;20.19;44.40
68793;BME280;55778;54.346;10.210;2023-05-10T09:50:14;100429.78;;;20.21;43.68
68793;BME280;55778;54.346;10.210;2023-05-10T09:52:55;100418.28;;;20.30;43.32
68793;BME280;55778;54.346;10.210;2023-05-10T09:55:25;100440.25;;;20.19;43.85
68793;BME280;55778;54.346;10.210;2023-05-10T09:58:01;100444.06;;;20.05;44.02
68793;BME280;55778;54.346;10.210;2023-05-10T10:00:27;100440.91;;;20.14;43.55
68793;BME280;55778;54.346;10.210;2023-05-10T10:02:59;100440.22;;;20.25;43.72
68793;BME280;55778;54.346;10.210;2023-05-10T10:05:35;100442.38;;;19.91;44.30
68793;BME280;55778;54.346;10.210;2023-05-10T10:08:03;100442.34;;;20.30;44.53
68793;BME280;55778;54.346;10.210;2023-05-10T10:10:30;100436.19;;;20.21;43.52
68793;BME280;55778;54.346;10.210;2023-05-10T10:12:56;100440.81;;;20.47;43.23
68793;BME280;55778;54.346;10.210;2023-05-10T10:15:23;100439.56;;;20.30;43.70
68793;BME280;55778;54.346;10.210;2023-05-10T10:17:49;100441.69;;;20.34;44.32
68793;BME280;55778;54.346;10.210;2023-05-10T10:20:16;100445.53;;;20.40;43.55
68793;BME280;55778;54.346;10.210;2023-05-10T10:22:41;100443.22;;;20.87;44.30
68793;BME280;55778;54.346;10.210;2023-05-10T10:25:10;100439.03;;;21.16;43.45
68793;BME280;55778;54.346;10.210;2023-05-10T10:27:44;100441.53;;;21.61;42.41
68793;BME280;55778;54.346;10.210;2023-05-10T10:35:53;100445.69;;;21.77;40.18
68793;BME280;55778;54.346;10.210;2023-05-10T10:38:20;100448.47;;;21.70;41.22
68793;BME280;55778;54.346;10.210;2023-05-10T10:40:45;100433.88;;;21.57;41.71
68793;BME280;55778;54.346;10.210;2023-05-10T10:43:40;100437.84;;;21.67;41.95
68793;BME280;55778;54.346;10.210;2023-05-10T10:46:16;100439.78;;;21.67;42.17
68793;BME280;55778;54.346;10.210;2023-05-10T10:48:51;100438.31;;;22.14;41.40
68793;BME280;55778;54.346;10.210;2023-05-10T10:51:37;100438.56;;;21.88;42.13
68793;BME280;55778;54.346;10.210;2023-05-10T10:54:11;100442.56;;;21.92;40.40
68793;BME280;55778;54.346;10.210;2023-05-10T10:56:37;100440.41;;;21.38;41.58
68793;BME280;55778;54.346;10.210;2023-05-10T10:59:03;100437.19;;;21.41;42.02
68793;BME280;55778;54.346;10.210;2023-05-10T11:01:33;100439.78;;;21.05;42.26
68793;BME280;55778;54.346;10.210;2023-05-10T11:06:35;100439.13;;;21.03;43.92
68793;BME280;55778;54.346;10.210;2023-05-10T11:09:07;100442.16;;;20.82;43.52
68793;BME280;55778;54.346;10.210;2023-05-10T11:11:34;100444.47;;;20.34;43.65
68793;BME280;55778;54.346;10.210;2023-05-10T11:14:05;100442.75;;;20.40;43.89
68793;BME280;55778;54.346;10.210;2023-05-10T11:16:43;100459.59;;;19.99;43.97
68793;BME280;55778;54.346;10.210;2023-05-10T11:19:14;100449.81;;;19.90;45.22
68793;BME280;55778;54.346;10.210;2023-05-10T11:21:47;100457.91;;;19.72;44.95
68793;BME280;55778;54.346;10.210;2023-05-10T11:24:17;100455.97;;;19.66;45.78
68793;BME280;55778;54.346;10.210;2023-05-10T11:26:43;100464.06;;;19.67;46.83
68793;BME280;55778;54.346;10.210;2023-05-10T11:29:09;100457.88;;;19.85;45.58
68793;BME280;55778;54.346;10.210;2023-05-10T11:31:35;100468.50;;;19.42;45.23
68793;BME280;55778;54.346;10.210;2023-05-10T11:34:01;100460.13;;;19.16;46.26
68793;BME280;55778;54.346;10.210;2023-05-10T11:36:34;100461.84;;;19.24;46.77
68793;BME280;55778;54.346;10.210;2023-05-10T11:39:00;100466.16;;;19.33;47.33
68793;BME280;55778;54.346;10.210;2023-05-10T11:41:27;100469.97;;;19.32;47.48
68793;BME280;55778;54.346;10.210;2023-05-10T11:43:54;100459.47;;;19.14;47.70
68793;BME280;55778;54.346;10.210;2023-05-10T11:46:21;100469.22;;;18.97;47.96
68793;BME280;55778;54.346;10.210;2023-05-10T11:48:49;100467.22;;;18.85;49.13
68793;BME280;55778;54.346;10.210;2023-05-10T11:51:15;100472.59;;;18.52;49.25
68793;BME280;55778;54.346;10.210;2023-05-10T11:53:41;100478.84;;;18.67;49.77
68793;BME280;55778;54.346;10.210;2023-05-10T11:56:10;100480.75;;;18.67;49.26
68793;BME280;55778;54.346;10.210;2023-05-10T11:58:37;100480.38;;;18.83;49.33
68793;BME280;55778;54.346;10.210;2023-05-10T12:01:05;100476.59;;;18.90;48.95
68793;BME280;55778;54.346;10.210;2023-05-10T12:03:31;100477.47;;;18.91;49.79
68793;BME280;55778;54.346;10.210;2023-05-10T12:05:57;100485.53;;;18.92;49.83
68793;BME280;55778;54.346;10.210;2023-05-10T12:08:24;100494.19;;;18.83;49.73
68793;BME280;55778;54.346;10.210;2023-05-10T12:10:50;100488.19;;;18.73;49.92
68793;BME280;55778;54.346;10.210;2023-05-10T12:13:16;100490.75;;;18.68;50.47
68793;BME280;55778;54.346;10.210;2023-05-10T12:15:43;100490.56;;;18.76;51.16
68793;BME280;55778;54.346;10.210;2023-05-10T12:18:12;100492.22;;;18.70;51.23
68793;BME280;55778;54.346;10.210;2023-05-10T12:20:38;100493.75;;;18.79;51.77
68793;BME280;55778;54.346;10.210;2023-05-10T12:23:04;100496.72;;;18.78;51.46
68793;BME280;55778;54.346;10.210;2023-05-10T12:25:34;100503.28;;;18.70;52.14
68793;BME280;55778;54.346;10.210;2023-05-10T12:28:04;100505.75;;;18.59;51.67
68793;BME280;55778;54.346;10.210;2023-05-10T12:30:31;100501.06;;;18.59;51.42
68793;BME280;55778;54.346;10.210;2023-05-10T12:33:10;100511.91;;;18.61;51.87
68793;BME280;55778;54.346;10.210;2023-05-10T12:35:47;100508.75;;;18.64;52.30
68793;BME280;55778;54.346;10.210;2023-05-10T12:38:29;100523.41;;;18.64;52.79
68793;BME280;55778;54.346;10.210;2023-05-10T12:40:57;100529.50;;;18.53;53.81
68793;BME280;55778;54.346;10.210;2023-05-10T12:43:22;100530.16;;;18.55;54.70
68793;BME280;55778;54.346;10.210;2023-05-10T12:45:48;100539.97;;;18.37;55.44
68793;BME280;55778;54.346;10.210;2023-05-10T12:48:14;100543.91;;;18.00;57.20
68793;BME280;55778;54.346;10.210;2023-05-10T12:50:40;100549.97;;;17.68;59.99
68793;BME280;55778;54.346;10.210;2023-05-10T12:53:05;100565.22;;;16.99;65.75
68793;BME280;55778;54.346;10.210;2023-05-10T12:55:31;100583.56;;;16.92;68.95
68793;BME280;55778;54.346;10.210;2023-05-10T12:57:56;100584.22;;;16.65;71.84
68793;BME280;55778;54.346;10.210;2023-05-10T13:00:22;100588.03;;;16.27;74.67
68793;BME280;55778;54.346;10.210;2023-05-10T13:02:47;100582.19;;;16.08;78.79
68793;BME280;55778;54.346;10.210;2023-05-10T13:05:15;100595.81;;;16.01;80.79